Time;durP1;ratioP1;P1;durP2;ratioP2;P2;SDS_P1;SDS_P2;PMS_P1;PMS_P2;Temp;Humidity;BMP_temperature;BMP_pressure;BME280_temperature;BME280_humidity;BME280_pressure;Samples;Min_cycle;Max_cycle;Signal;HPM_P1;HPM_P2
2021/06/04 00:02:16;;;;;;;;;31.25;24.75;;;;;;;;4997267;28;8813;-73
2021/06/04 00:04:42;;;;;;;;;32.50;31.00;;;;;;;;4994255;28;9608;-73
2021/06/04 00:07:09;;;;;;;;;32.00;31.50;;;;;;;;5005656;28;8874;-73
2021/06/04 00:09:36;;;;;;;;;31.00;27.00;;;;;;;;5006498;28;8862;-74
2021/06/04 00:12:05;;;;;;;;;28.25;26.50;;;;;;;;5002647;28;8870;-73
2021/06/04 00:14:35;;;;;;;;;28.25;24.00;;;;;;;;4999886;28;8882;-75
2021/06/04 00:17:06;;;;;;;;;34.25;31.75;;;;;;;;5006451;28;8917;-74
2021/06/04 00:19:34;;;;;;;;;30.00;29.25;;;;;;;;5007694;28;8874;-77
2021/06/04 00:22:05;;;;;;;;;31.50;29.50;;;;;;;;4998819;28;8866;-75
2021/06/04 00:24:34;;;;;;;;;31.75;29.75;;;;;;;;5005750;28;8910;-77
2021/06/04 00:27:01;;;;;;;;;30.75;26.75;;;;;;;;5007984;28;8854;-78
2021/06/04 00:29:27;;;;;;;;;33.50;30.25;;;;;;;;5004862;28;8882;-76
2021/06/04 00:31:56;;;;;;;;;29.00;27.50;;;;;;;;5007218;28;8823;-80
2021/06/04 00:34:26;;;;;;;;;27.75;27.50;;;;;;;;5003672;28;8880;-75
2021/06/04 00:36:53;;;;;;;;;28.50;28.25;;;;;;;;5005042;28;9008;-79
2021/06/04 00:39:27;;;;;;;;;27.25;25.00;;;;;;;;4998998;28;8980;-73
2021/06/04 00:41:56;;;;;;;;;24.75;22.75;;;;;;;;5006379;28;8890;-76
2021/06/04 00:44:24;;;;;;;;;27.75;27.00;;;;;;;;5007906;28;8894;-75
2021/06/04 00:46:51;;;;;;;;;31.25;27.50;;;;;;;;5003783;28;9040;-75
2021/06/04 00:49:18;;;;;;;;;27.25;27.25;;;;;;;;4998713;28;9019;-81
2021/06/04 00:51:54;;;;;;;;;20.50;20.50;;;;;;;;5005453;28;8892;-85
2021/06/04 00:54:22;;;;;;;;;28.75;28.75;;;;;;;;5012022;28;8993;-83
2021/06/04 00:56:50;;;;;;;;;28.25;27.00;;;;;;;;4995873;28;8985;-85
2021/06/04 00:59:27;;;;;;;;;26.25;24.25;;;;;;;;5006215;28;8866;-85
2021/06/04 01:01:54;;;;;;;;;28.25;25.00;;;;;;;;5006337;28;8815;-84
2021/06/04 01:04:24;;;;;;;;;28.00;26.00;;;;;;;;5005239;28;8882;-78
2021/06/04 01:06:57;;;;;;;;;29.00;28.25;;;;;;;;4999319;28;8873;-80
2021/06/04 01:09:40;;;;;;;;;27.00;25.00;;;;;;;;5005840;28;8874;-74
2021/06/04 01:12:26;;;;;;;;;31.00;28.00;;;;;;;;5001244;28;8862;-79
2021/06/04 01:15:00;;;;;;;;;31.00;27.67;;;;;;;;5006353;28;8889;-78
2021/06/04 01:17:30;;;;;;;;;28.00;28.00;;;;;;;;4998980;28;9021;-75
2021/06/04 01:20:03;;;;;;;;;28.33;25.00;;;;;;;;5004454;28;8962;-75
2021/06/04 01:23:02;;;;;;;;;24.33;24.00;;;;;;;;5006432;28;8965;-74
2021/06/04 01:25:36;;;;;;;;;30.33;28.67;;;;;;;;4976922;28;8958;-75
2021/06/04 01:28:09;;;;;;;;;30.00;28.67;;;;;;;;5003040;28;9044;-78
2021/06/04 01:30:38;;;;;;;;;26.33;22.33;;;;;;;;5004425;28;8891;-81
2021/06/04 01:33:11;;;;;;;;;33.33;31.33;;;;;;;;5001778;28;9792;-82
2021/06/04 01:35:41;;;;;;;;;29.00;25.33;;;;;;;;5002454;28;9212;-75
2021/06/04 01:38:10;;;;;;;;;27.33;27.00;;;;;;;;5004144;28;9019;-74
2021/06/04 01:40:41;;;;;;;;;27.25;26.75;;;;;;;;5004080;28;9103;-78
2021/06/04 01:43:10;;;;;;;;;28.00;26.25;;;;;;;;5004865;28;8886;-75
2021/06/04 01:45:40;;;;;;;;;17.33;17.00;;;;;;;;5002890;28;9030;-75
2021/06/04 01:48:11;;;;;;;;;32.75;28.00;;;;;;;;5002636;28;9053;-76
2021/06/04 01:50:40;;;;;;;;;29.75;28.00;;;;;;;;5005344;28;8870;-78
2021/06/04 01:53:11;;;;;;;;;26.50;25.50;;;;;;;;5002747;28;8877;-80
2021/06/04 01:55:45;;;;;;;;;25.00;25.00;;;;;;;;5001072;28;9037;-76
2021/06/04 01:58:15;;;;;;;;;34.25;27.50;;;;;;;;5005774;28;8975;-79
2021/06/04 02:00:45;;;;;;;;;25.67;25.33;;;;;;;;4998111;28;8803;-82
2021/06/04 02:03:14;;;;;;;;;29.33;26.33;;;;;;;;5001664;28;8959;-75
2021/06/04 02:05:41;;;;;;;;;29.00;29.00;;;;;;;;5003822;28;9665;-77
2021/06/04 02:08:12;;;;;;;;;26.25;26.25;;;;;;;;5004513;28;9154;-76
2021/06/04 02:10:50;;;;;;;;;28.00;24.50;;;;;;;;5004021;28;8851;-75
2021/06/04 02:13:17;;;;;;;;;24.25;23.50;;;;;;;;5002913;28;9019;-76
2021/06/04 02:15:48;;;;;;;;;36.25;30.00;;;;;;;;4998315;28;8867;-74
2021/06/04 02:18:21;;;;;;;;;32.00;29.67;;;;;;;;4999593;28;8940;-76
2021/06/04 02:20:54;;;;;;;;;29.33;25.00;;;;;;;;5004209;28;9195;-74
2021/06/04 02:23:27;;;;;;;;;25.67;24.67;;;;;;;;5002701;28;9038;-75
2021/06/04 02:26:02;;;;;;;;;26.33;25.67;;;;;;;;5003013;28;9048;-78
2021/06/04 02:28:32;;;;;;;;;30.33;30.33;;;;;;;;5005104;28;8978;-73
2021/06/04 02:31:06;;;;;;;;;29.67;29.67;;;;;;;;5001571;28;9078;-80
2021/06/04 02:33:37;;;;;;;;;26.00;25.33;;;;;;;;5002242;28;9873;-74
2021/06/04 02:36:08;;;;;;;;;32.33;24.67;;;;;;;;5003111;28;9341;-80
2021/06/04 02:38:40;;;;;;;;;32.00;29.33;;;;;;;;5003052;28;9295;-73
2021/06/04 02:41:13;;;;;;;;;31.33;31.33;;;;;;;;5004511;28;9624;-73
2021/06/04 02:43:44;;;;;;;;;27.50;25.00;;;;;;;;4995032;28;9480;-76
2021/06/04 02:46:18;;;;;;;;;30.00;29.75;;;;;;;;5001981;28;9487;-75
2021/06/04 02:48:46;;;;;;;;;33.75;28.25;;;;;;;;5002133;28;9748;-76
2021/06/04 02:51:19;;;;;;;;;31.75;31.75;;;;;;;;5005148;28;9665;-74
2021/06/04 02:53:50;;;;;;;;;32.75;30.50;;;;;;;;5003267;28;9574;-75
2021/06/04 02:56:25;;;;;;;;;36.75;32.75;;;;;;;;5003857;28;9735;-78
2021/06/04 02:58:55;;;;;;;;;32.50;27.25;;;;;;;;4998374;28;9740;-76
2021/06/04 03:01:23;;;;;;;;;29.00;27.00;;;;;;;;4996997;28;9601;-77
2021/06/04 03:03:52;;;;;;;;;34.50;29.75;;;;;;;;4996993;28;9633;-76
2021/06/04 03:06:23;;;;;;;;;34.25;32.25;;;;;;;;5002911;28;10469;-77
2021/06/04 03:08:50;;;;;;;;;28.25;28.25;;;;;;;;4999807;28;9639;-84
2021/06/04 03:11:19;;;;;;;;;27.75;26.75;;;;;;;;5003507;28;9626;-83
2021/06/04 03:13:48;;;;;;;;;22.75;20.25;;;;;;;;4991229;28;9678;-85
2021/06/04 03:16:20;;;;;;;;;18.25;16.75;;;;;;;;5000596;28;9816;-80
2021/06/04 03:18:50;;;;;;;;;24.67;24.67;;;;;;;;4994365;28;9476;-82
2021/06/04 03:21:20;;;;;;;;;23.00;23.00;;;;;;;;5006270;28;10252;-78
2021/06/04 03:23:49;;;;;;;;;23.75;23.75;;;;;;;;5003630;28;9332;-84
2021/06/04 03:26:18;;;;;;;;;28.67;26.33;;;;;;;;5002204;28;9513;-84
2021/06/04 03:28:50;;;;;;;;;29.67;27.00;;;;;;;;5003514;28;9268;-78
2021/06/04 03:31:19;;;;;;;;;29.67;27.33;;;;;;;;5002618;28;9215;-80
2021/06/04 03:33:46;;;;;;;;;30.33;27.00;;;;;;;;4999002;28;9382;-75
2021/06/04 03:36:18;;;;;;;;;23.67;22.00;;;;;;;;5001244;28;9294;-79
2021/06/04 03:38:46;;;;;;;;;29.00;27.00;;;;;;;;4997958;28;9264;-78
2021/06/04 03:41:15;;;;;;;;;19.00;19.00;;;;;;;;5002602;28;9228;-75
2021/06/04 03:43:42;;;;;;;;;25.00;24.00;;;;;;;;4995219;28;9312;-74
2021/06/04 03:46:10;;;;;;;;;24.67;22.67;;;;;;;;5000101;28;9187;-81
2021/06/04 03:48:37;;;;;;;;;24.67;22.67;;;;;;;;4999360;28;9137;-75
2021/06/04 03:51:07;;;;;;;;;22.67;22.67;;;;;;;;5004010;28;9013;-76
2021/06/04 03:53:34;;;;;;;;;23.00;22.67;;;;;;;;4996202;28;8977;-77
2021/06/04 03:56:03;;;;;;;;;26.00;23.67;;;;;;;;5005064;28;8961;-78
2021/06/04 03:58:30;;;;;;;;;19.33;18.33;;;;;;;;4998133;28;9089;-79
2021/06/04 04:01:00;;;;;;;;;20.00;18.25;;;;;;;;5002647;28;8906;-78
2021/06/04 04:03:29;;;;;;;;;22.00;20.75;;;;;;;;4993858;28;9705;-81
2021/06/04 04:05:56;;;;;;;;;23.50;22.75;;;;;;;;4999175;28;8878;-77
2021/06/04 04:08:27;;;;;;;;;20.25;18.00;;;;;;;;5002298;28;8962;-79
2021/06/04 04:10:54;;;;;;;;;17.00;17.00;;;;;;;;4999838;28;8881;-78
2021/06/04 04:13:22;;;;;;;;;21.50;17.75;;;;;;;;4994919;28;8879;-76
2021/06/04 04:15:50;;;;;;;;;22.50;18.50;;;;;;;;5001410;28;8877;-78
2021/06/04 04:18:17;;;;;;;;;18.00;18.00;;;;;;;;4990384;28;8943;-75
2021/06/04 04:20:47;;;;;;;;;24.50;23.00;;;;;;;;5003067;28;8948;-77
2021/06/04 04:23:17;;;;;;;;;17.75;16.75;;;;;;;;5002897;28;8917;-76
2021/06/04 04:25:46;;;;;;;;;22.75;22.75;;;;;;;;5003588;28;8877;-79
2021/06/04 04:28:15;;;;;;;;;22.25;19.00;;;;;;;;5000383;28;8995;-77
2021/06/04 04:30:42;;;;;;;;;17.00;17.00;;;;;;;;5003332;28;8814;-79
2021/06/04 04:33:10;;;;;;;;;17.00;17.00;;;;;;;;5001781;28;8920;-75
2021/06/04 04:35:38;;;;;;;;;22.50;17.75;;;;;;;;5003530;28;8878;-74
2021/06/04 04:38:09;;;;;;;;;24.00;22.25;;;;;;;;5001257;28;9016;-76
2021/06/04 04:40:38;;;;;;;;;21.75;20.00;;;;;;;;4995804;28;8878;-77
2021/06/04 04:43:06;;;;;;;;;18.00;17.75;;;;;;;;5007019;28;8858;-79
2021/06/04 04:45:33;;;;;;;;;17.00;14.00;;;;;;;;5014147;28;8867;-78
2021/06/04 04:48:01;;;;;;;;;17.75;17.25;;;;;;;;5006310;28;8908;-79
2021/06/04 04:50:28;;;;;;;;;23.00;22.50;;;;;;;;5005515;28;9012;-80
2021/06/04 04:52:56;;;;;;;;;21.50;19.00;;;;;;;;5004614;28;8886;-80
2021/06/04 04:55:28;;;;;;;;;16.25;16.25;;;;;;;;5003740;28;9256;-80
2021/06/04 04:57:55;;;;;;;;;28.00;24.50;;;;;;;;5005970;28;8882;-80
2021/06/04 05:00:24;;;;;;;;;26.25;25.50;;;;;;;;5004263;28;8880;-77
2021/06/04 05:02:52;;;;;;;;;29.25;28.50;;;;;;;;5006271;28;8883;-78
2021/06/04 05:05:23;;;;;;;;;32.25;26.00;;;;;;;;5001982;28;8866;-77
2021/06/04 05:07:50;;;;;;;;;29.25;26.25;;;;;;;;4997790;28;8874;-77
2021/06/04 05:10:17;;;;;;;;;26.25;23.00;;;;;;;;5005173;28;8928;-78
2021/06/04 05:12:45;;;;;;;;;19.50;19.50;;;;;;;;5004810;28;8868;-75
2021/06/04 05:15:14;;;;;;;;;31.25;27.50;;;;;;;;5000390;28;8892;-75
2021/06/04 05:17:42;;;;;;;;;24.75;24.25;;;;;;;;5004737;28;8859;-77
2021/06/04 05:20:11;;;;;;;;;21.50;20.50;;;;;;;;5002922;28;9119;-78
2021/06/04 05:22:38;;;;;;;;;23.75;23.75;;;;;;;;4997632;28;9477;-71
2021/06/04 05:25:08;;;;;;;;;31.25;25.75;;;;;;;;4986798;28;8891;-71
2021/06/04 05:27:35;;;;;;;;;20.75;19.25;;;;;;;;5002588;28;8901;-72
2021/06/04 05:30:05;;;;;;;;;28.50;25.75;;;;;;;;5001978;28;8904;-71
2021/06/04 05:32:32;;;;;;;;;15.25;13.50;;;;;;;;5000895;28;8831;-70
2021/06/04 05:34:58;;;;;;;;;20.75;20.25;;;;;;;;5001491;28;8862;-72
2021/06/04 05:37:25;;;;;;;;;20.25;19.75;;;;;;;;5002108;28;8868;-74
2021/06/04 05:39:52;;;;;;;;;25.50;23.50;;;;;;;;4994677;28;8846;-74
2021/06/04 05:42:19;;;;;;;;;24.75;23.25;;;;;;;;5002553;28;8874;-78
2021/06/04 05:44:47;;;;;;;;;20.75;19.75;;;;;;;;5005188;28;8890;-76
2021/06/04 05:47:16;;;;;;;;;28.50;23.50;;;;;;;;5001093;28;8997;-75
2021/06/04 05:49:44;;;;;;;;;23.50;23.25;;;;;;;;5005590;28;8931;-75
2021/06/04 05:52:14;;;;;;;;;27.75;27.25;;;;;;;;4994055;28;8888;-76
2021/06/04 05:54:43;;;;;;;;;21.00;19.25;;;;;;;;5004526;28;8977;-78
2021/06/04 05:57:11;;;;;;;;;25.50;25.25;;;;;;;;5003305;28;8836;-74
2021/06/04 05:59:38;;;;;;;;;22.25;20.50;;;;;;;;5004020;28;8932;-70
2021/06/04 06:02:05;;;;;;;;;18.00;17.50;;;;;;;;5004603;28;8827;-73
2021/06/04 06:04:34;;;;;;;;;17.50;16.25;;;;;;;;5003611;28;9064;-77
2021/06/04 06:07:01;;;;;;;;;20.50;18.25;;;;;;;;5004476;28;8886;-74
2021/06/04 06:09:29;;;;;;;;;23.00;18.25;;;;;;;;5000861;28;8878;-77
2021/06/04 06:11:56;;;;;;;;;19.75;19.25;;;;;;;;5005623;28;8882;-72
2021/06/04 06:14:22;;;;;;;;;23.50;22.25;;;;;;;;4997123;28;8869;-77
2021/06/04 06:16:49;;;;;;;;;17.75;17.75;;;;;;;;4991665;28;8862;-70
2021/06/04 06:19:19;;;;;;;;;17.75;17.75;;;;;;;;5005493;28;8898;-72
2021/06/04 06:21:51;;;;;;;;;19.00;18.25;;;;;;;;4992761;28;8890;-71
2021/06/04 06:24:18;;;;;;;;;18.75;18.75;;;;;;;;4991414;28;8940;-77
2021/06/04 06:26:45;;;;;;;;;20.00;20.00;;;;;;;;5003249;28;8962;-79
2021/06/04 06:29:15;;;;;;;;;11.75;10.00;;;;;;;;5005942;28;8878;-79
2021/06/04 06:31:44;;;;;;;;;16.25;14.50;;;;;;;;4999146;28;8821;-80
2021/06/04 06:34:12;;;;;;;;;18.50;18.00;;;;;;;;5004582;28;8874;-80
2021/06/04 06:36:41;;;;;;;;;18.00;18.00;;;;;;;;5002272;28;9621;-80
2021/06/04 06:39:14;;;;;;;;;29.00;25.00;;;;;;;;5004227;28;8900;-72
2021/06/04 06:41:43;;;;;;;;;26.75;25.75;;;;;;;;4998274;28;9024;-76
2021/06/04 06:44:11;;;;;;;;;36.00;31.75;;;;;;;;5008242;28;8978;-75
2021/06/04 06:46:38;;;;;;;;;42.50;35.00;;;;;;;;4999120;28;8914;-79
2021/06/04 06:49:06;;;;;;;;;44.75;39.00;;;;;;;;4999150;28;8862;-78
2021/06/04 06:51:35;;;;;;;;;42.67;37.00;;;;;;;;5002119;28;9609;-78
2021/06/04 06:54:02;;;;;;;;;45.50;39.00;;;;;;;;5003997;28;9109;-77
2021/06/04 06:56:30;;;;;;;;;45.00;38.00;;;;;;;;5003780;28;9014;-76
2021/06/04 06:58:58;;;;;;;;;51.67;42.67;;;;;;;;5004475;28;9125;-80
2021/06/04 07:01:25;;;;;;;;;48.67;42.00;;;;;;;;5002640;28;9284;-80
2021/06/04 07:03:52;;;;;;;;;45.33;39.67;;;;;;;;5002517;28;9229;-78
2021/06/04 07:06:22;;;;;;;;;54.33;44.00;;;;;;;;5001855;28;9079;-81
2021/06/04 07:08:49;;;;;;;;;51.00;40.33;;;;;;;;4999370;28;9307;-80
2021/06/04 07:11:17;;;;;;;;;46.50;38.25;;;;;;;;5004099;28;9094;-80
2021/06/04 07:13:46;;;;;;;;;50.75;42.00;;;;;;;;4998787;28;8931;-81
2021/06/04 07:16:14;;;;;;;;;45.33;38.00;;;;;;;;4999215;28;8871;-83
2021/06/04 07:18:41;;;;;;;;;44.50;38.25;;;;;;;;5005110;28;8964;-79
2021/06/04 07:21:10;;;;;;;;;44.67;38.33;;;;;;;;4998993;28;8872;-81
2021/06/04 07:23:37;;;;;;;;;48.00;40.00;;;;;;;;4995224;28;8963;-84
2021/06/04 07:26:05;;;;;;;;;47.75;41.00;;;;;;;;4994643;28;8874;-83
2021/06/04 07:28:33;;;;;;;;;41.00;37.00;;;;;;;;5002013;28;8851;-85
2021/06/04 07:31:05;;;;;;;;;37.00;33.67;;;;;;;;5002456;28;8814;-84
2021/06/04 07:33:35;;;;;;;;;36.25;32.50;;;;;;;;4999069;28;8852;-82
2021/06/04 07:36:05;;;;;;;;;38.75;33.75;;;;;;;;4996519;28;8879;-81
2021/06/04 07:38:32;;;;;;;;;28.25;28.25;;;;;;;;4992539;28;8880;-81
2021/06/04 07:41:01;;;;;;;;;40.25;34.75;;;;;;;;4990451;28;8856;-82
2021/06/04 07:43:31;;;;;;;;;37.50;34.00;;;;;;;;5002121;28;8870;-81
2021/06/04 07:46:00;;;;;;;;;28.50;28.50;;;;;;;;4996177;28;8850;-81
2021/06/04 07:48:27;;;;;;;;;18.75;17.25;;;;;;;;4996035;28;8877;-81
2021/06/04 07:50:56;;;;;;;;;15.25;15.25;;;;;;;;4990852;28;8902;-81
2021/06/04 07:53:26;;;;;;;;;19.25;16.00;;;;;;;;5000952;28;9611;-82
2021/06/04 07:55:54;;;;;;;;;13.50;11.75;;;;;;;;4997163;28;9625;-81
2021/06/04 07:58:21;;;;;;;;;12.75;12.75;;;;;;;;4993877;28;8891;-81
2021/06/04 08:00:48;;;;;;;;;11.50;10.25;;;;;;;;4997560;28;8942;-82
2021/06/04 08:03:23;;;;;;;;;18.00;14.75;;;;;;;;4986505;28;8853;-83
2021/06/04 08:05:51;;;;;;;;;11.00;11.00;;;;;;;;4998598;28;8862;-79
2021/06/04 08:08:19;;;;;;;;;12.25;12.25;;;;;;;;5000554;28;8862;-79
2021/06/04 08:10:46;;;;;;;;;18.25;12.50;;;;;;;;4998091;28;8879;-79
2021/06/04 08:13:15;;;;;;;;;16.50;14.50;;;;;;;;4993153;28;8866;-80
2021/06/04 08:15:49;;;;;;;;;10.25;10.25;;;;;;;;5001937;28;8965;-77
2021/06/04 08:18:17;;;;;;;;;8.50;8.50;;;;;;;;4995843;28;8882;-80
2021/06/04 08:20:46;;;;;;;;;8.75;7.75;;;;;;;;5002261;28;9001;-79
2021/06/04 08:23:16;;;;;;;;;8.00;6.00;;;;;;;;5000979;28;8886;-79
2021/06/04 08:25:45;;;;;;;;;6.75;5.00;;;;;;;;5002023;28;9862;-80
2021/06/04 08:28:12;;;;;;;;;6.25;6.25;;;;;;;;5000691;28;8859;-81
2021/06/04 08:30:39;;;;;;;;;4.75;4.75;;;;;;;;4998975;28;8956;-81
2021/06/04 08:33:06;;;;;;;;;3.75;3.75;;;;;;;;4995587;28;9001;-80
2021/06/04 08:35:35;;;;;;;;;2.50;2.50;;;;;;;;5000759;28;8870;-80
2021/06/04 08:38:04;;;;;;;;;4.50;4.50;;;;;;;;5000511;28;8869;-80
2021/06/04 08:40:34;;;;;;;;;6.25;6.00;;;;;;;;4993645;28;8905;-81
2021/06/04 08:43:16;;;;;;;;;13.00;9.75;;;;;;;;4999643;28;8976;-81
2021/06/04 08:45:51;;;;;;;;;9.50;9.50;;;;;;;;5001807;28;8874;-78
2021/06/04 08:48:26;;;;;;;;;7.00;7.00;;;;;;;;5001873;28;9617;-80
2021/06/04 08:51:03;;;;;;;;;11.75;11.75;;;;;;;;5007301;28;8858;-81
2021/06/04 08:53:37;;;;;;;;;13.00;13.00;;;;;;;;4997727;28;8885;-78
2021/06/04 08:56:07;;;;;;;;;11.50;9.75;;;;;;;;4999149;28;8883;-77
2021/06/04 08:58:50;;;;;;;;;13.00;10.75;;;;;;;;5001983;28;8924;-80
2021/06/04 09:01:21;;;;;;;;;18.00;13.25;;;;;;;;5002326;28;8910;-77
2021/06/04 09:03:51;;;;;;;;;7.50;7.50;;;;;;;;4995948;28;8969;-76
2021/06/04 09:06:28;;;;;;;;;9.80;9.80;;;;;;;;5005192;28;8921;-79
2021/06/04 09:08:58;;;;;;;;;7.40;7.40;;;;;;;;5006311;28;9652;-75
2021/06/04 09:11:29;;;;;;;;;9.00;7.00;;;;;;;;5005286;28;8882;-76
2021/06/04 09:13:56;;;;;;;;;7.20;6.80;;;;;;;;5005353;28;8981;-79
2021/06/04 09:16:34;;;;;;;;;9.20;8.00;;;;;;;;5002555;28;8862;-78
2021/06/04 09:19:09;;;;;;;;;7.40;7.40;;;;;;;;5000548;28;9301;-80
2021/06/04 09:21:41;;;;;;;;;6.00;6.00;;;;;;;;5002381;28;8872;-79
2021/06/04 09:24:13;;;;;;;;;6.20;6.20;;;;;;;;4998448;28;8914;-79
2021/06/04 09:26:40;;;;;;;;;6.40;6.40;;;;;;;;5004611;28;8880;-79
2021/06/04 09:29:14;;;;;;;;;7.00;7.00;;;;;;;;5002432;28;8894;-80
2021/06/04 09:31:44;;;;;;;;;9.20;9.00;;;;;;;;5003411;28;8826;-82
2021/06/04 09:34:15;;;;;;;;;11.20;11.20;;;;;;;;5010476;28;8968;-83
2021/06/04 09:36:48;;;;;;;;;10.20;10.00;;;;;;;;5001396;28;8867;-80
2021/06/04 09:39:34;;;;;;;;;14.40;13.60;;;;;;;;5006595;28;8862;-89
2021/06/04 09:42:18;;;;;;;;;12.00;12.00;;;;;;;;4996796;28;8878;-78
2021/06/04 09:44:55;;;;;;;;;16.80;15.60;;;;;;;;5002529;28;8985;-79
2021/06/04 09:47:34;;;;;;;;;15.80;15.80;;;;;;;;5000556;28;8904;-83
2021/06/04 09:50:17;;;;;;;;;21.40;19.60;;;;;;;;5004490;28;9634;-81
2021/06/04 09:52:45;;;;;;;;;15.40;13.40;;;;;;;;5009374;28;8864;-83
2021/06/04 09:55:26;;;;;;;;;19.20;17.40;;;;;;;;4997820;28;8921;-80
2021/06/04 09:58:18;;;;;;;;;18.20;17.60;;;;;;;;5001137;28;8851;-79
2021/06/04 10:00:47;;;;;;;;;19.00;18.60;;;;;;;;5003831;28;8807;-80
2021/06/04 10:03:29;;;;;;;;;16.20;16.20;;;;;;;;4997730;28;8884;-80
2021/06/04 10:06:28;;;;;;;;;20.20;18.40;;;;;;;;5000122;28;8895;-82
2021/06/04 10:08:58;;;;;;;;;13.00;13.00;;;;;;;;4925802;29;8852;-80
2021/06/04 10:11:28;;;;;;;;;14.60;14.60;;;;;;;;4982692;28;9009;-77
2021/06/04 10:14:01;;;;;;;;;13.60;13.60;;;;;;;;4997362;28;8870;-78
2021/06/04 10:19:25;;;;;;;;;10.60;10.60;;;;;;;;4996631;28;8830;-75
2021/06/04 10:22:09;;;;;;;;;9.20;9.20;;;;;;;;4991954;28;8872;-78
2021/06/04 10:24:41;;;;;;;;;6.20;6.20;;;;;;;;4999040;28;8898;-78
2021/06/04 10:27:11;;;;;;;;;9.20;7.80;;;;;;;;5004341;28;8882;-77
2021/06/04 10:29:39;;;;;;;;;8.40;8.40;;;;;;;;4997787;28;8924;-78
2021/06/04 10:32:09;;;;;;;;;10.20;10.20;;;;;;;;4994143;28;8877;-79
2021/06/04 10:34:53;;;;;;;;;8.60;8.60;;;;;;;;4997883;28;8901;-80
2021/06/04 10:37:22;;;;;;;;;10.00;9.00;;;;;;;;5002874;28;8884;-78
2021/06/04 10:39:55;;;;;;;;;12.20;12.20;;;;;;;;5003633;28;8884;-77
2021/06/04 10:42:31;;;;;;;;;10.20;10.00;;;;;;;;4999324;28;8867;-80
2021/06/04 10:45:09;;;;;;;;;8.40;8.40;;;;;;;;4999208;28;8983;-74
2021/06/04 10:47:46;;;;;;;;;6.20;6.20;;;;;;;;5000888;28;8870;-78
2021/06/04 10:50:18;;;;;;;;;10.00;10.00;;;;;;;;4995164;28;8881;-80
2021/06/04 10:53:00;;;;;;;;;6.60;6.60;;;;;;;;5001919;28;8870;-76
2021/06/04 10:55:32;;;;;;;;;6.00;4.40;;;;;;;;4998806;28;8876;-75
2021/06/04 10:58:07;;;;;;;;;5.80;5.80;;;;;;;;4996285;28;8872;-77
2021/06/04 11:00:41;;;;;;;;;6.00;6.00;;;;;;;;5000016;28;8940;-78
2021/06/04 11:03:13;;;;;;;;;3.80;3.80;;;;;;;;4999776;28;8998;-78
2021/06/04 11:05:48;;;;;;;;;4.00;4.00;;;;;;;;4997857;28;8902;-77
2021/06/04 11:08:43;;;;;;;;;4.20;4.20;;;;;;;;5000185;28;8879;-77
2021/06/04 11:11:28;;;;;;;;;5.00;4.60;;;;;;;;4997424;28;8880;-76
2021/06/04 11:14:18;;;;;;;;;4.40;4.40;;;;;;;;5002297;28;9705;-74
2021/06/04 11:16:51;;;;;;;;;4.20;3.00;;;;;;;;5003625;28;8874;-75
2021/06/04 11:19:24;;;;;;;;;5.20;5.20;;;;;;;;5003140;28;8863;-76
2021/06/04 11:21:54;;;;;;;;;4.40;4.40;;;;;;;;5001647;28;8902;-75
2021/06/04 11:24:29;;;;;;;;;5.00;5.00;;;;;;;;5003463;28;8886;-77
2021/06/04 11:26:58;;;;;;;;;5.40;5.40;;;;;;;;5001778;28;8977;-75
2021/06/04 11:29:29;;;;;;;;;7.40;4.40;;;;;;;;5002243;28;8919;-76
2021/06/04 11:32:00;;;;;;;;;3.20;3.20;;;;;;;;5002550;28;8943;-75
2021/06/04 11:34:42;;;;;;;;;4.00;4.00;;;;;;;;5013683;28;8880;-75
2021/06/04 11:37:11;;;;;;;;;4.00;4.00;;;;;;;;4996656;28;9587;-74
2021/06/04 11:39:42;;;;;;;;;6.20;4.40;;;;;;;;5000705;28;8916;-76
2021/06/04 11:42:14;;;;;;;;;7.20;7.20;;;;;;;;5003054;28;8883;-77
2021/06/04 11:44:43;;;;;;;;;5.80;5.80;;;;;;;;4999870;28;8855;-75
2021/06/04 11:47:28;;;;;;;;;7.20;5.80;;;;;;;;5001471;28;8883;-75
2021/06/04 11:50:27;;;;;;;;;5.80;5.80;;;;;;;;5001742;28;9002;-75
2021/06/04 11:53:13;;;;;;;;;4.40;4.40;;;;;;;;4998706;28;8876;-74
2021/06/04 11:55:40;;;;;;;;;4.40;4.40;;;;;;;;5002693;28;8911;-74
2021/06/04 11:58:19;;;;;;;;;5.20;5.20;;;;;;;;5003419;28;8948;-75
2021/06/04 12:00:48;;;;;;;;;3.80;3.80;;;;;;;;5001435;28;8798;-75
2021/06/04 12:03:26;;;;;;;;;4.80;4.80;;;;;;;;5003245;28;8941;-75
2021/06/04 12:05:56;;;;;;;;;5.20;3.60;;;;;;;;5003044;28;8880;-75
2021/06/04 12:08:44;;;;;;;;;3.60;3.60;;;;;;;;5003850;28;8868;-75
2021/06/04 12:11:35;;;;;;;;;3.60;3.60;;;;;;;;5000624;28;8864;-75
2021/06/04 12:14:25;;;;;;;;;4.80;4.80;;;;;;;;4992469;28;8892;-75
2021/06/04 12:17:25;;;;;;;;;3.40;3.40;;;;;;;;5001912;28;8868;-74
2021/06/04 12:20:17;;;;;;;;;3.00;3.00;;;;;;;;4993112;28;9662;-75
2021/06/04 12:22:48;;;;;;;;;5.00;5.00;;;;;;;;5001718;28;8879;-74
2021/06/04 12:25:45;;;;;;;;;4.20;4.20;;;;;;;;5004447;28;8860;-74
2021/06/04 12:28:32;;;;;;;;;8.20;5.00;;;;;;;;5003271;28;8966;-74
2021/06/04 12:31:19;;;;;;;;;3.00;3.00;;;;;;;;4996549;28;8824;-75
2021/06/04 12:33:52;;;;;;;;;5.20;5.20;;;;;;;;5000341;28;8860;-75
2021/06/04 12:36:56;;;;;;;;;6.00;6.00;;;;;;;;5001710;28;8911;-75
2021/06/04 12:39:42;;;;;;;;;4.80;4.80;;;;;;;;5002705;28;8880;-74
2021/06/04 12:42:17;;;;;;;;;6.00;6.00;;;;;;;;5004178;28;8856;-74
2021/06/04 12:44:52;;;;;;;;;5.00;5.00;;;;;;;;5001868;28;8915;-75
2021/06/04 12:47:23;;;;;;;;;5.80;4.00;;;;;;;;5002592;28;8884;-75
2021/06/04 12:49:49;;;;;;;;;4.00;4.00;;;;;;;;5004052;28;8939;-75
2021/06/04 12:52:18;;;;;;;;;5.80;4.60;;;;;;;;5002213;28;9725;-75
2021/06/04 12:54:45;;;;;;;;;3.20;3.00;;;;;;;;5002377;28;8880;-75
2021/06/04 12:57:23;;;;;;;;;5.60;4.00;;;;;;;;5002202;28;8887;-75
2021/06/04 12:59:51;;;;;;;;;4.00;4.00;;;;;;;;5012615;28;8887;-75
2021/06/04 13:02:23;;;;;;;;;5.40;3.80;;;;;;;;5002730;28;8849;-75
2021/06/04 13:04:53;;;;;;;;;4.80;4.80;;;;;;;;5005956;28;8864;-74
2021/06/04 13:07:27;;;;;;;;;6.40;3.40;;;;;;;;5007348;28;9647;-75
2021/06/04 13:10:03;;;;;;;;;2.80;2.60;;;;;;;;5004597;28;8865;-75
2021/06/04 13:12:34;;;;;;;;;3.60;3.60;;;;;;;;5003637;28;8888;-75
2021/06/04 13:15:13;;;;;;;;;5.00;5.00;;;;;;;;5005612;28;8899;-75
2021/06/04 13:17:40;;;;;;;;;4.40;4.40;;;;;;;;5006216;28;8852;-74
2021/06/04 13:20:13;;;;;;;;;8.00;8.00;;;;;;;;5004616;28;8874;-75
2021/06/04 13:22:41;;;;;;;;;7.40;6.60;;;;;;;;5005459;28;8880;-74
2021/06/04 13:25:17;;;;;;;;;5.00;5.00;;;;;;;;5005516;28;9391;-74
2021/06/04 13:27:46;;;;;;;;;7.00;7.00;;;;;;;;4998193;28;8880;-74
2021/06/04 13:30:17;;;;;;;;;6.80;6.80;;;;;;;;5003403;28;8872;-74
2021/06/04 13:32:49;;;;;;;;;6.40;6.40;;;;;;;;5006134;28;8874;-74
2021/06/04 13:35:19;;;;;;;;;4.00;4.00;;;;;;;;4994826;28;8937;-75
2021/06/04 13:37:52;;;;;;;;;5.20;5.20;;;;;;;;5006618;28;8870;-74
2021/06/04 13:40:20;;;;;;;;;1.80;1.80;;;;;;;;5004073;28;8876;-74
2021/06/04 13:42:52;;;;;;;;;5.20;5.00;;;;;;;;5006253;28;8886;-74
2021/06/04 13:45:20;;;;;;;;;8.20;8.20;;;;;;;;5001536;28;8880;-74
2021/06/04 13:47:50;;;;;;;;;6.40;6.40;;;;;;;;5005165;28;9020;-74
2021/06/04 13:50:22;;;;;;;;;8.00;6.60;;;;;;;;5006763;28;8860;-75
2021/06/04 13:53:02;;;;;;;;;8.60;8.00;;;;;;;;5004730;28;8872;-75
2021/06/04 13:55:30;;;;;;;;;8.40;8.00;;;;;;;;5006065;28;8898;-75
2021/06/04 13:58:14;;;;;;;;;8.40;8.40;;;;;;;;5004387;28;8998;-75
2021/06/04 14:00:41;;;;;;;;;8.00;8.00;;;;;;;;5004428;28;8821;-75
2021/06/04 14:03:13;;;;;;;;;7.00;7.00;;;;;;;;5005467;28;8864;-74
2021/06/04 14:05:41;;;;;;;;;7.40;6.80;;;;;;;;5004559;28;9038;-74
2021/06/04 14:08:11;;;;;;;;;9.20;9.20;;;;;;;;5005821;28;8871;-74
2021/06/04 14:10:48;;;;;;;;;9.00;8.20;;;;;;;;5002522;28;8879;-75
2021/06/04 14:13:19;;;;;;;;;7.60;7.60;;;;;;;;5004356;28;8868;-74
2021/06/04 14:16:01;;;;;;;;;5.60;5.60;;;;;;;;5002990;28;8926;-73
2021/06/04 14:18:37;;;;;;;;;5.40;5.20;;;;;;;;5003617;28;8871;-75
2021/06/04 14:21:29;;;;;;;;;7.60;7.00;;;;;;;;5005093;28;8868;-75
2021/06/04 14:23:58;;;;;;;;;10.00;8.60;;;;;;;;4990414;28;8852;-73
2021/06/04 14:26:28;;;;;;;;;5.80;5.80;;;;;;;;5000310;28;8981;-75
2021/06/04 14:29:11;;;;;;;;;7.00;7.00;;;;;;;;5004000;28;8868;-75
2021/06/04 14:31:38;;;;;;;;;4.80;4.80;;;;;;;;5003115;28;8845;-73
2021/06/04 14:34:05;;;;;;;;;8.40;6.80;;;;;;;;5004821;28;8844;-75
2021/06/04 14:36:34;;;;;;;;;9.40;9.40;;;;;;;;5002095;28;8888;-73
2021/06/04 14:39:30;;;;;;;;;7.20;7.20;;;;;;;;5005581;28;8897;-73
2021/06/04 14:41:58;;;;;;;;;11.00;10.00;;;;;;;;4992762;28;8987;-72
2021/06/04 14:44:26;;;;;;;;;4.40;4.40;;;;;;;;4999310;28;8872;-73
2021/06/04 14:46:56;;;;;;;;;6.00;6.00;;;;;;;;5003896;28;8979;-73
2021/06/04 14:49:24;;;;;;;;;8.80;8.80;;;;;;;;5003429;28;9056;-73
2021/06/04 14:51:51;;;;;;;;;8.40;7.00;;;;;;;;5005023;28;8876;-73
2021/06/04 14:54:18;;;;;;;;;7.20;7.20;;;;;;;;5002642;28;8891;-73
2021/06/04 14:56:46;;;;;;;;;10.40;9.20;;;;;;;;5006154;28;8995;-73
2021/06/04 14:59:13;;;;;;;;;11.20;9.80;;;;;;;;5006754;28;8876;-72
2021/06/04 15:01:42;;;;;;;;;8.60;8.60;;;;;;;;5002594;28;8877;-74
2021/06/04 15:04:09;;;;;;;;;9.00;9.00;;;;;;;;5004532;28;8859;-73
2021/06/04 15:06:36;;;;;;;;;11.00;9.40;;;;;;;;5001045;28;8868;-73
2021/06/04 15:09:04;;;;;;;;;11.20;11.20;;;;;;;;5003069;28;9042;-73